createdAt,value
2019-03-06T00:02:54.067Z,100082.19
2019-03-06T00:07:56.081Z,100078.44
2019-03-06T00:12:58.333Z,100069.05
2019-03-06T00:18:00.767Z,100056.94
2019-03-06T00:23:02.785Z,100053.72
2019-03-06T00:28:05.383Z,100043.75
2019-03-06T00:33:07.599Z,100046.94
2019-03-06T00:38:09.597Z,100043.16
2019-03-06T00:43:12.393Z,100054.69
2019-03-06T00:48:14.417Z,100043.31
2019-03-06T00:53:17.653Z,100057.13
2019-03-06T00:58:19.930Z,100054.23
2019-03-06T01:03:22.313Z,100045.77
2019-03-06T01:08:24.470Z,100042.17
2019-03-06T01:13:26.586Z,100034.42
2019-03-06T01:18:28.609Z,100028.85
2019-03-06T01:23:30.980Z,100019.83
2019-03-06T01:28:33.321Z,100020.00
2019-03-06T01:33:46.873Z,100020.64
2019-03-06T01:39:20.227Z,100021.75
2019-03-06T01:44:26.184Z,100004.91
2019-03-06T01:49:28.204Z,99999.33
2019-03-06T01:54:30.245Z,99999.83
2019-03-06T01:59:32.319Z,100000.83
2019-03-06T02:04:34.423Z,99991.52
2019-03-06T02:09:36.513Z,99988.58
2019-03-06T02:14:38.652Z,99978.25
2019-03-06T02:19:40.750Z,99972.74
2019-03-06T02:24:42.812Z,99969.67
2019-03-06T02:29:44.838Z,99958.86
2019-03-06T02:34:47.085Z,99954.83
2019-03-06T02:39:49.200Z,99924.64
2019-03-06T02:44:51.320Z,99927.36
2019-03-06T02:49:53.398Z,99933.14
2019-03-06T02:54:55.570Z,99930.31
2019-03-06T03:00:26.239Z,99932.09
2019-03-06T03:05:39.632Z,99927.28
2019-03-06T03:10:41.661Z,99919.28
2019-03-06T03:15:43.691Z,99924.72
2019-03-06T03:20:46.136Z,99923.78
2019-03-06T03:25:48.262Z,99911.77
2019-03-06T03:30:50.356Z,99904.03
2019-03-06T03:35:52.446Z,99905.48
2019-03-06T03:40:54.467Z,99893.00
2019-03-06T03:45:56.467Z,99880.10
2019-03-06T03:50:58.568Z,99888.69
2019-03-06T03:56:00.647Z,99882.08
2019-03-06T04:01:02.914Z,99879.79
2019-03-06T04:06:04.988Z,99882.36
2019-03-06T04:11:07.458Z,99879.17
2019-03-06T04:16:09.499Z,99872.52
2019-03-06T04:21:11.520Z,99865.11
2019-03-06T04:26:13.598Z,99867.36
2019-03-06T04:31:15.637Z,99854.03
2019-03-06T04:36:17.666Z,99855.47
2019-03-06T04:41:19.667Z,99852.25
2019-03-06T04:46:21.701Z,99854.61
2019-03-06T04:51:24.110Z,99840.55
2019-03-06T04:56:26.314Z,99842.34
2019-03-06T05:01:28.417Z,99826.22
2019-03-06T05:06:30.591Z,99810.87
2019-03-06T05:11:32.631Z,99806.52
2019-03-06T05:16:58.570Z,99801.59
2019-03-06T05:22:00.640Z,99796.35
2019-03-06T05:27:02.713Z,99786.52
2019-03-06T05:32:30.511Z,99802.64
2019-03-06T05:38:23.531Z,99796.35
2019-03-06T05:43:25.621Z,99805.81
2019-03-06T05:48:27.948Z,99786.25
2019-03-06T05:53:29.997Z,99767.58
2019-03-06T05:58:32.073Z,99752.55
2019-03-06T06:03:34.161Z,99745.53
2019-03-06T06:08:36.477Z,99750.88
2019-03-06T06:13:38.587Z,99742.77
2019-03-06T06:18:40.833Z,99743.50
2019-03-06T06:23:49.471Z,99731.20
2019-03-06T06:28:51.562Z,99731.86
2019-03-06T06:33:53.594Z,99731.28
2019-03-06T06:38:56.031Z,99724.95
2019-03-06T06:43:58.107Z,99711.28
2019-03-06T06:49:00.144Z,99724.83
2019-03-06T06:54:10.657Z,99709.17
2019-03-06T06:59:20.770Z,99698.81
2019-03-06T07:05:04.871Z,99699.39
2019-03-06T07:10:25.323Z,99696.94
2019-03-06T07:15:42.663Z,99675.20
2019-03-06T07:21:03.368Z,99685.81
2019-03-06T07:26:30.906Z,99680.42
2019-03-06T07:31:49.514Z,99673.11
2019-03-06T07:36:58.776Z,99671.69
2019-03-06T07:42:29.456Z,99666.83
2019-03-06T07:47:57.137Z,99659.42
2019-03-06T07:54:27.715Z,99664.10
2019-03-06T07:59:29.721Z,99665.74
2019-03-06T08:04:31.920Z,99656.12
2019-03-06T08:09:34.060Z,99649.81
2019-03-06T08:14:56.139Z,99630.35
2019-03-06T08:20:16.688Z,99621.48
2019-03-06T08:25:27.692Z,99621.14
2019-03-06T08:30:31.967Z,99614.56
2019-03-06T08:35:34.065Z,99617.72
2019-03-06T08:40:36.134Z,99608.94
2019-03-06T08:46:00.504Z,99617.57
2019-03-06T08:51:08.411Z,99609.58
2019-03-06T08:56:16.248Z,99610.81
2019-03-06T09:02:00.078Z,99606.92
2019-03-06T09:07:06.929Z,99589.92
2019-03-06T09:12:26.663Z,99585.54
2019-03-06T09:17:51.330Z,99559.22
2019-03-06T09:23:03.004Z,99558.59
2019-03-06T09:28:42.807Z,99562.56
2019-03-06T09:34:09.612Z,99539.14
2019-03-06T09:39:41.057Z,99532.39
2019-03-06T09:45:05.712Z,99519.82
2019-03-06T09:50:33.813Z,99497.08
2019-03-06T09:56:01.450Z,99485.19
2019-03-06T10:01:22.066Z,99465.78
2019-03-06T10:06:53.126Z,99465.47
2019-03-06T10:12:02.895Z,99448.86
2019-03-06T10:17:14.565Z,99439.31
2019-03-06T10:22:17.239Z,99440.61
2019-03-06T10:27:19.273Z,99429.81
2019-03-06T10:32:21.537Z,99433.08
2019-03-06T10:37:23.614Z,99433.91
2019-03-06T10:42:25.726Z,99428.89
2019-03-06T10:47:27.818Z,99428.89
2019-03-06T10:52:29.919Z,99414.09
2019-03-06T10:57:31.988Z,99407.80
2019-03-06T11:02:34.420Z,99394.69
2019-03-06T11:07:36.718Z,99394.96
2019-03-06T11:12:39.084Z,99378.48
2019-03-06T11:17:41.155Z,99366.73
2019-03-06T11:22:43.698Z,99366.73
2019-03-06T11:27:46.056Z,99347.53
2019-03-06T11:32:54.388Z,99335.58
2019-03-06T11:37:52.701Z,99330.69
2019-03-06T11:42:54.827Z,99326.98
2019-03-06T11:47:57.140Z,99312.20
2019-03-06T11:52:59.192Z,99298.35
2019-03-06T11:58:01.396Z,99281.31
2019-03-06T12:03:05.055Z,99270.68
2019-03-06T12:08:10.035Z,99254.72
2019-03-06T12:13:13.775Z,99243.55
2019-03-06T12:18:16.896Z,99240.86
2019-03-06T12:23:19.675Z,99225.81
2019-03-06T12:28:21.803Z,99217.28
2019-03-06T12:33:25.897Z,99212.88
2019-03-06T12:38:27.992Z,99203.97
2019-03-06T12:43:30.272Z,99189.27
2019-03-06T12:48:32.765Z,99185.30
2019-03-06T12:53:34.892Z,99181.14
2019-03-06T12:58:37.838Z,99172.86
2019-03-06T13:03:39.963Z,99155.82
2019-03-06T13:08:49.936Z,99144.42
2019-03-06T13:13:46.173Z,99126.20
2019-03-06T13:18:48.262Z,99120.85
2019-03-06T13:23:50.773Z,99111.97
2019-03-06T13:28:57.406Z,99103.91
2019-03-06T13:34:28.734Z,99106.52
2019-03-06T13:39:30.988Z,99098.75
2019-03-06T13:44:33.054Z,99090.82
2019-03-06T13:49:35.179Z,99068.87
2019-03-06T13:54:37.399Z,99068.19
2019-03-06T13:59:39.517Z,99072.19
2019-03-06T14:04:41.604Z,99046.94
2019-03-06T14:09:44.075Z,99046.89
2019-03-06T14:14:46.076Z,99045.17
2019-03-06T14:19:48.173Z,99033.12
2019-03-06T14:24:50.245Z,99033.62
2019-03-06T14:29:52.673Z,99033.63
2019-03-06T14:34:55.754Z,99030.98
2019-03-06T14:39:59.394Z,99026.34
2019-03-06T14:45:01.840Z,99011.63
2019-03-06T14:50:04.310Z,99005.97
2019-03-06T14:55:08.696Z,98995.79
2019-03-06T15:00:12.712Z,98986.73
2019-03-06T15:05:15.536Z,98980.34
2019-03-06T15:10:17.770Z,98980.51
2019-03-06T15:15:19.980Z,98975.32
2019-03-06T15:20:22.489Z,98963.71
2019-03-06T15:25:24.656Z,98955.66
2019-03-06T15:30:26.795Z,98955.89
2019-03-06T15:35:29.238Z,98943.61
2019-03-06T15:40:32.208Z,98948.73
2019-03-06T15:45:34.343Z,98941.77
2019-03-06T15:50:36.449Z,98941.56
2019-03-06T15:55:38.974Z,98938.39
2019-03-06T16:00:46.137Z,98933.23
2019-03-06T16:05:45.943Z,98932.26
2019-03-06T16:10:48.043Z,98917.13
2019-03-06T16:15:50.283Z,98914.03
2019-03-06T16:20:52.494Z,98916.48
2019-03-06T16:25:54.985Z,98913.70
2019-03-06T16:30:57.104Z,98912.78
2019-03-06T16:35:59.447Z,98917.49
2019-03-06T16:41:01.532Z,98912.70
2019-03-06T16:46:03.854Z,98919.63
2019-03-06T16:51:08.114Z,98910.27
2019-03-06T16:56:10.848Z,98913.70
2019-03-06T17:01:13.267Z,98920.37
2019-03-06T17:06:15.342Z,98922.89
2019-03-06T17:11:17.551Z,98922.98
2019-03-06T17:16:19.962Z,98923.05
2019-03-06T17:21:22.055Z,98934.61
2019-03-06T17:26:25.089Z,98926.23
2019-03-06T17:31:27.530Z,98928.47
2019-03-06T17:36:29.966Z,98936.75
2019-03-06T17:41:32.113Z,98925.27
2019-03-06T17:46:34.296Z,98931.91
2019-03-06T17:51:36.366Z,98946.30
2019-03-06T17:56:38.411Z,98951.35
2019-03-06T18:01:40.541Z,98961.41
2019-03-06T18:06:42.771Z,98961.25
2019-03-06T18:11:44.955Z,98956.28
2019-03-06T18:16:47.188Z,98948.11
2019-03-06T18:21:49.256Z,98947.45
2019-03-06T18:26:51.304Z,98918.25
2019-03-06T18:31:53.729Z,98918.25
2019-03-06T18:36:55.845Z,98913.81
2019-03-06T18:41:58.134Z,98893.48
2019-03-06T18:47:00.455Z,98893.48
2019-03-06T18:52:02.743Z,98858.27
2019-03-06T18:57:05.154Z,98858.27
2019-03-06T19:02:07.325Z,98831.22
2019-03-06T19:07:09.629Z,98831.22
2019-03-06T19:12:11.772Z,98834.75
2019-03-06T19:17:13.878Z,98836.69
2019-03-06T19:22:16.045Z,98818.17
2019-03-06T19:27:18.219Z,98814.20
2019-03-06T19:32:20.329Z,98789.84
2019-03-06T19:37:22.527Z,98791.53
2019-03-06T19:42:24.620Z,98769.29
2019-03-06T19:47:27.053Z,98769.29
2019-03-06T19:52:29.125Z,98768.20
2019-03-06T19:57:50.484Z,98763.72
2019-03-06T20:02:52.655Z,98758.28
2019-03-06T20:07:54.740Z,98765.22
2019-03-06T20:12:57.084Z,98765.22
2019-03-06T20:18:03.821Z,98759.98
2019-03-06T20:23:06.317Z,98751.53
2019-03-06T20:28:08.640Z,98745.39
2019-03-06T20:33:11.141Z,98736.30
2019-03-06T20:38:13.453Z,98739.03
2019-03-06T20:43:15.612Z,98739.03
2019-03-06T20:48:17.721Z,98742.05
2019-03-06T20:53:19.938Z,98735.75
2019-03-06T20:58:34.128Z,98713.89
2019-03-06T21:03:36.277Z,98715.20
2019-03-06T21:08:38.464Z,98706.36
2019-03-06T21:13:40.950Z,98690.73
2019-03-06T21:18:43.083Z,98700.92
2019-03-06T21:23:45.255Z,98675.41
2019-03-06T21:28:52.649Z,98675.41
2019-03-06T21:33:54.960Z,98679.52
2019-03-06T21:38:57.049Z,98658.91
2019-03-06T21:43:59.200Z,98658.91
2019-03-06T21:49:01.901Z,98652.25
2019-03-06T21:54:04.083Z,98637.63
2019-03-06T21:59:06.157Z,98644.29
2019-03-06T22:04:08.250Z,98653.05
2019-03-06T22:09:12.362Z,98645.45
2019-03-06T22:14:14.487Z,98645.45
2019-03-06T22:19:16.600Z,98656.84
2019-03-06T22:24:18.727Z,98663.64
2019-03-06T22:29:20.906Z,98663.64
2019-03-06T22:34:23.087Z,98666.62
2019-03-06T22:39:25.446Z,98650.79
2019-03-06T22:44:27.599Z,98646.33
2019-03-06T22:49:29.687Z,98639.84
2019-03-06T22:54:31.802Z,98636.89
2019-03-06T22:59:33.845Z,98629.05
2019-03-06T23:04:36.016Z,98615.59
2019-03-06T23:09:38.116Z,98611.24
2019-03-06T23:14:40.359Z,98610.16
2019-03-06T23:19:42.427Z,98615.69
2019-03-06T23:24:44.485Z,98615.69
2019-03-06T23:29:46.819Z,98606.72
2019-03-06T23:34:48.859Z,98596.38
2019-03-06T23:39:50.913Z,98599.95
2019-03-06T23:44:53.181Z,98593.38
2019-03-06T23:49:55.262Z,98576.73
2019-03-06T23:54:57.370Z,98569.44
2019-03-06T23:59:59.408Z,98569.44
